AFL1010 UNNT-UACC
Flight info
| Callsign | AFL1010 |
|---|---|
| Flight time | N/A |
| Altitude | 40000 |
| Route | ALIRO1K ALIRO R484 MISLU A366 LAGMO L988 ABELI Z746 EDANO EDANO1H |
| Aircraft | SU95/M-SDE3GILORVW/S |
Departure
| Time | N/A |
|---|---|
| Airport | Novosibirsk Tolmachevo Airport (UNNT) |
Arrival
| Time | 2026-05-01 07:41 |
|---|---|
| Airport | Nursultan Nazarbayev International Airport (UACC) |
| Time | Latitude | Longitude | Altitude | Speed | Heading |
|---|---|---|---|---|---|
| 2026-05-01 07:23 | 51.25069 | 73.46233 | 28994 ft | 420 kts | 248° |
| 2026-05-01 07:23 | 51.23906 | 73.40489 | 28642 ft | 416 kts | 248° |
| 2026-05-01 07:24 | 51.23016 | 73.36099 | 28378 ft | 414 kts | 248° |
| 2026-05-01 07:24 | 51.22129 | 73.31737 | 28055 ft | 413 kts | 248° |
| 2026-05-01 07:24 | 51.21240 | 73.27375 | 27450 ft | 412 kts | 248° |
| 2026-05-01 07:24 | 51.20355 | 73.23042 | 26864 ft | 410 kts | 248° |
| 2026-05-01 07:25 | 51.19474 | 73.18737 | 26282 ft | 406 kts | 248° |
| 2026-05-01 07:25 | 51.18602 | 73.14481 | 25697 ft | 403 kts | 248° |
| 2026-05-01 07:25 | 51.17732 | 73.10246 | 25110 ft | 400 kts | 248° |
| 2026-05-01 07:25 | 51.16868 | 73.06051 | 24537 ft | 397 kts | 248° |
| 2026-05-01 07:26 | 51.16009 | 73.01889 | 23951 ft | 394 kts | 248° |
| 2026-05-01 07:26 | 51.15155 | 72.97754 | 23349 ft | 391 kts | 248° |
| 2026-05-01 07:26 | 51.14310 | 72.93651 | 22732 ft | 387 kts | 248° |
| 2026-05-01 07:26 | 51.13485 | 72.89610 | 22159 ft | 382 kts | 248° |
| 2026-05-01 07:27 | 51.12671 | 72.85618 | 21576 ft | 377 kts | 248° |
| 2026-05-01 07:27 | 51.11864 | 72.81671 | 21020 ft | 373 kts | 248° |
| 2026-05-01 07:27 | 51.11065 | 72.77772 | 20465 ft | 368 kts | 248° |
| 2026-05-01 07:27 | 51.10274 | 72.73923 | 19912 ft | 364 kts | 248° |
| 2026-05-01 07:28 | 51.09488 | 72.70106 | 19352 ft | 361 kts | 248° |
| 2026-05-01 07:28 | 51.08706 | 72.66322 | 18803 ft | 359 kts | 248° |
| 2026-05-01 07:28 | 51.07930 | 72.62571 | 18258 ft | 356 kts | 248° |
| 2026-05-01 07:28 | 51.07157 | 72.58843 | 17664 ft | 353 kts | 248° |
| 2026-05-01 07:29 | 51.06391 | 72.55155 | 17122 ft | 349 kts | 248° |
| 2026-05-01 07:29 | 51.05633 | 72.51514 | 16587 ft | 345 kts | 248° |
| 2026-05-01 07:29 | 51.04883 | 72.47915 | 16055 ft | 341 kts | 248° |
| 2026-05-01 07:29 | 51.04150 | 72.44404 | 15538 ft | 338 kts | 248° |
| 2026-05-01 07:30 | 51.03412 | 72.40878 | 15014 ft | 335 kts | 248° |
| 2026-05-01 07:30 | 51.02675 | 72.37366 | 14497 ft | 333 kts | 248° |
| 2026-05-01 07:30 | 51.01944 | 72.33888 | 13981 ft | 331 kts | 249° |
| 2026-05-01 07:30 | 51.01218 | 72.30439 | 13454 ft | 329 kts | 249° |
| 2026-05-01 07:31 | 51.00495 | 72.27003 | 12933 ft | 326 kts | 249° |
| 2026-05-01 07:31 | 50.98355 | 72.16887 | 11427 ft | 319 kts | 248° |
| 2026-05-01 07:32 | 50.96965 | 72.10325 | 10570 ft | 311 kts | 248° |
| 2026-05-01 07:32 | 50.96527 | 72.07034 | 10441 ft | 303 kts | 266° |
| 2026-05-01 07:33 | 50.98142 | 72.01122 | 9955 ft | 304 kts | 314° |
| 2026-05-01 07:33 | 50.99939 | 71.99293 | 9498 ft | 309 kts | 329° |
| 2026-05-01 07:33 | 51.03796 | 71.96215 | 8618 ft | 312 kts | 330° |
| 2026-05-01 07:34 | 51.05736 | 71.94667 | 8245 ft | 309 kts | 329° |
| 2026-05-01 07:34 | 51.09521 | 71.91592 | 7461 ft | 305 kts | 330° |
| 2026-05-01 07:34 | 51.11404 | 71.90056 | 7101 ft | 303 kts | 329° |
| 2026-05-01 07:35 | 51.13266 | 71.88506 | 6821 ft | 300 kts | 327° |
| 2026-05-01 07:35 | 51.14952 | 71.86574 | 6458 ft | 297 kts | 314° |
| 2026-05-01 07:35 | 51.16403 | 71.84279 | 6170 ft | 293 kts | 310° |
| 2026-05-01 07:35 | 51.17819 | 71.82007 | 5796 ft | 293 kts | 311° |
| 2026-05-01 07:36 | 51.19174 | 71.79650 | 5604 ft | 281 kts | 298° |
| 2026-05-01 07:36 | 51.19826 | 71.76829 | 5501 ft | 259 kts | 268° |
| 2026-05-01 07:36 | 51.19478 | 71.74193 | 5419 ft | 241 kts | 239° |
| 2026-05-01 07:36 | 51.18535 | 71.72012 | 5085 ft | 239 kts | 225° |
| 2026-05-01 07:37 | 51.16054 | 71.68161 | 4010 ft | 258 kts | 222° |
| 2026-05-01 07:37 | 51.14753 | 71.66137 | 3471 ft | 264 kts | 222° |
| 2026-05-01 07:37 | 51.13434 | 71.64076 | 3151 ft | 263 kts | 221° |
| 2026-05-01 07:38 | 51.12159 | 71.62087 | 3072 ft | 251 kts | 222° |
| 2026-05-01 07:38 | 51.10935 | 71.60177 | 2999 ft | 242 kts | 221° |
| 2026-05-01 07:38 | 51.08600 | 71.56536 | 2592 ft | 233 kts | 223° |
| 2026-05-01 07:39 | 51.07460 | 71.54751 | 2284 ft | 224 kts | 222° |
| 2026-05-01 07:39 | 51.06407 | 71.53104 | 1996 ft | 206 kts | 221° |
| 2026-05-01 07:39 | 51.04536 | 71.50177 | 1518 ft | 169 kts | 221° |
| 2026-05-01 07:40 | 51.03744 | 71.48939 | 1307 ft | 151 kts | 220° |
| 2026-05-01 07:40 | 51.03042 | 71.47843 | 1168 ft | 132 kts | 226° |
| 2026-05-01 07:40 | 51.02469 | 71.46956 | 1170 ft | 96 kts | 224° |
| 2026-05-01 07:40 | 51.02066 | 71.46340 | 1169 ft | 65 kts | 223° |
| 2026-05-01 07:41 | 51.01818 | 71.45931 | 1172 ft | 38 kts | 223° |
| 2026-05-01 07:41 | 51.01654 | 71.45688 | 1170 ft | 25 kts | 232° |
| 2026-05-01 07:41 | 51.01559 | 71.45512 | 1171 ft | 9 kts | 223° |
| 2026-05-01 07:42 | 51.01504 | 71.45434 | 1168 ft | 12 kts | 221° |
| 2026-05-01 07:42 | 51.01440 | 71.45336 | 1171 ft | 13 kts | 226° |
| 2026-05-01 07:42 | 51.01377 | 71.45237 | 1173 ft | 13 kts | 223° |